sensor_id;sensor_type;location;lat;lon;timestamp;P1;durP1;ratioP1;P2;durP2;ratioP2
30299;SDS011;17110;52.602;12.998;2023-07-20T00:01:32;5.47;;;5.07;;
30299;SDS011;17110;52.602;12.998;2023-07-20T00:03:58;5.70;;;5.20;;
30299;SDS011;17110;52.602;12.998;2023-07-20T00:06:24;5.47;;;4.97;;
30299;SDS011;17110;52.602;12.998;2023-07-20T00:08:50;5.35;;;4.95;;
30299;SDS011;17110;52.602;12.998;2023-07-20T00:11:18;5.70;;;4.72;;
30299;SDS011;17110;52.602;12.998;2023-07-20T00:13:43;5.10;;;4.55;;
30299;SDS011;17110;52.602;12.998;2023-07-20T00:16:09;5.88;;;5.35;;
30299;SDS011;17110;52.602;12.998;2023-07-20T00:18:35;7.63;;;5.65;;
30299;SDS011;17110;52.602;12.998;2023-07-20T00:21:00;8.82;;;6.10;;
30299;SDS011;17110;52.602;12.998;2023-07-20T00:23:26;7.03;;;6.40;;
30299;SDS011;17110;52.602;12.998;2023-07-20T00:25:52;8.07;;;7.30;;
30299;SDS011;17110;52.602;12.998;2023-07-20T00:28:19;7.63;;;6.85;;
30299;SDS011;17110;52.602;12.998;2023-07-20T00:30:45;8.30;;;7.28;;
30299;SDS011;17110;52.602;12.998;2023-07-20T00:33:11;7.35;;;6.57;;
30299;SDS011;17110;52.602;12.998;2023-07-20T00:35:37;8.85;;;6.35;;
30299;SDS011;17110;52.602;12.998;2023-07-20T00:38:03;6.80;;;6.30;;
30299;SDS011;17110;52.602;12.998;2023-07-20T00:40:34;6.90;;;6.30;;
30299;SDS011;17110;52.602;12.998;2023-07-20T00:43:01;6.57;;;6.07;;
30299;SDS011;17110;52.602;12.998;2023-07-20T00:45:28;8.13;;;6.80;;
30299;SDS011;17110;52.602;12.998;2023-07-20T00:47:54;7.63;;;6.80;;
30299;SDS011;17110;52.602;12.998;2023-07-20T00:50:20;7.03;;;6.40;;
30299;SDS011;17110;52.602;12.998;2023-07-20T00:52:46;7.93;;;6.65;;
30299;SDS011;17110;52.602;12.998;2023-07-20T00:55:11;7.20;;;6.65;;
30299;SDS011;17110;52.602;12.998;2023-07-20T00:57:37;6.90;;;6.30;;
30299;SDS011;17110;52.602;12.998;2023-07-20T01:00:06;7.40;;;6.75;;
30299;SDS011;17110;52.602;12.998;2023-07-20T01:02:33;7.38;;;6.68;;
30299;SDS011;17110;52.602;12.998;2023-07-20T01:05:01;7.43;;;6.82;;
30299;SDS011;17110;52.602;12.998;2023-07-20T01:07:30;8.48;;;7.07;;
30299;SDS011;17110;52.602;12.998;2023-07-20T01:10:01;8.05;;;6.70;;
30299;SDS011;17110;52.602;12.998;2023-07-20T01:12:40;7.60;;;6.90;;
30299;SDS011;17110;52.602;12.998;2023-07-20T01:15:07;9.73;;;7.93;;
30299;SDS011;17110;52.602;12.998;2023-07-20T01:17:34;7.78;;;7.07;;
30299;SDS011;17110;52.602;12.998;2023-07-20T01:20:00;8.73;;;7.68;;
30299;SDS011;17110;52.602;12.998;2023-07-20T01:22:36;9.40;;;6.85;;
30299;SDS011;17110;52.602;12.998;2023-07-20T01:25:21;9.80;;;6.90;;
30299;SDS011;17110;52.602;12.998;2023-07-20T01:30:59;10.15;;;9.25;;
30299;SDS011;17110;52.602;12.998;2023-07-20T01:33:40;9.68;;;8.77;;
30299;SDS011;17110;52.602;12.998;2023-07-20T01:36:06;9.27;;;8.45;;
30299;SDS011;17110;52.602;12.998;2023-07-20T01:38:33;12.02;;;9.65;;
30299;SDS011;17110;52.602;12.998;2023-07-20T01:40:59;10.35;;;9.00;;
30299;SDS011;17110;52.602;12.998;2023-07-20T01:43:26;10.23;;;9.32;;
30299;SDS011;17110;52.602;12.998;2023-07-20T01:45:52;8.80;;;8.00;;
30299;SDS011;17110;52.602;12.998;2023-07-20T01:48:19;9.40;;;8.27;;
30299;SDS011;17110;52.602;12.998;2023-07-20T01:50:44;9.90;;;8.93;;
30299;SDS011;17110;52.602;12.998;2023-07-20T01:53:10;9.20;;;8.43;;
30299;SDS011;17110;52.602;12.998;2023-07-20T01:55:36;9.65;;;8.75;;
30299;SDS011;17110;52.602;12.998;2023-07-20T01:58:02;9.82;;;8.93;;
30299;SDS011;17110;52.602;12.998;2023-07-20T02:00:28;11.27;;;10.18;;
30299;SDS011;17110;52.602;12.998;2023-07-20T02:02:54;11.25;;;10.32;;
30299;SDS011;17110;52.602;12.998;2023-07-20T02:05:21;9.48;;;8.77;;
30299;SDS011;17110;52.602;12.998;2023-07-20T02:07:47;11.85;;;10.32;;
30299;SDS011;17110;52.602;12.998;2023-07-20T02:10:16;11.97;;;10.77;;
30299;SDS011;17110;52.602;12.998;2023-07-20T02:12:42;11.07;;;10.27;;
30299;SDS011;17110;52.602;12.998;2023-07-20T02:15:08;11.70;;;10.65;;
30299;SDS011;17110;52.602;12.998;2023-07-20T02:17:34;11.48;;;10.57;;
30299;SDS011;17110;52.602;12.998;2023-07-20T02:20:02;11.57;;;10.48;;
30299;SDS011;17110;52.602;12.998;2023-07-20T02:22:30;11.95;;;10.82;;
30299;SDS011;17110;52.602;12.998;2023-07-20T02:24:55;14.13;;;12.73;;
30299;SDS011;17110;52.602;12.998;2023-07-20T02:27:21;12.55;;;11.45;;
30299;SDS011;17110;52.602;12.998;2023-07-20T02:29:46;14.57;;;13.32;;
30299;SDS011;17110;52.602;12.998;2023-07-20T02:32:12;15.20;;;13.70;;
30299;SDS011;17110;52.602;12.998;2023-07-20T02:34:38;14.32;;;13.13;;
30299;SDS011;17110;52.602;12.998;2023-07-20T02:37:04;15.05;;;13.55;;
30299;SDS011;17110;52.602;12.998;2023-07-20T02:39:31;16.20;;;14.90;;
30299;SDS011;17110;52.602;12.998;2023-07-20T02:41:57;15.15;;;13.75;;
30299;SDS011;17110;52.602;12.998;2023-07-20T02:44:22;14.30;;;13.20;;
30299;SDS011;17110;52.602;12.998;2023-07-20T02:46:48;16.77;;;15.48;;
30299;SDS011;17110;52.602;12.998;2023-07-20T02:49:14;16.27;;;14.75;;
30299;SDS011;17110;52.602;12.998;2023-07-20T02:51:39;15.13;;;13.77;;
30299;SDS011;17110;52.602;12.998;2023-07-20T02:54:05;15.52;;;14.05;;
30299;SDS011;17110;52.602;12.998;2023-07-20T02:56:32;17.60;;;15.80;;
30299;SDS011;17110;52.602;12.998;2023-07-20T02:58:58;15.27;;;13.88;;
30299;SDS011;17110;52.602;12.998;2023-07-20T03:01:23;17.30;;;15.90;;
30299;SDS011;17110;52.602;12.998;2023-07-20T03:03:49;15.90;;;14.70;;
30299;SDS011;17110;52.602;12.998;2023-07-20T03:06:15;16.27;;;14.93;;
30299;SDS011;17110;52.602;12.998;2023-07-20T03:08:41;16.25;;;14.85;;
30299;SDS011;17110;52.602;12.998;2023-07-20T03:11:07;17.02;;;15.38;;
30299;SDS011;17110;52.602;12.998;2023-07-20T03:13:34;15.43;;;13.80;;
30299;SDS011;17110;52.602;12.998;2023-07-20T03:15:59;14.73;;;13.32;;
30299;SDS011;17110;52.602;12.998;2023-07-20T03:18:26;15.70;;;14.40;;
30299;SDS011;17110;52.602;12.998;2023-07-20T03:20:53;15.88;;;14.57;;
30299;SDS011;17110;52.602;12.998;2023-07-20T03:23:19;14.68;;;13.38;;
30299;SDS011;17110;52.602;12.998;2023-07-20T03:25:45;17.70;;;15.82;;
30299;SDS011;17110;52.602;12.998;2023-07-20T03:28:11;16.23;;;14.82;;
30299;SDS011;17110;52.602;12.998;2023-07-20T03:30:38;15.05;;;13.70;;
30299;SDS011;17110;52.602;12.998;2023-07-20T03:33:04;15.20;;;13.77;;
30299;SDS011;17110;52.602;12.998;2023-07-20T03:35:30;16.95;;;15.52;;
30299;SDS011;17110;52.602;12.998;2023-07-20T03:37:55;17.17;;;15.77;;
30299;SDS011;17110;52.602;12.998;2023-07-20T03:40:21;16.55;;;15.05;;
30299;SDS011;17110;52.602;12.998;2023-07-20T03:42:46;16.00;;;14.63;;
30299;SDS011;17110;52.602;12.998;2023-07-20T03:45:12;15.88;;;14.30;;
30299;SDS011;17110;52.602;12.998;2023-07-20T03:47:39;17.33;;;15.95;;
30299;SDS011;17110;52.602;12.998;2023-07-20T03:50:05;21.75;;;16.67;;
30299;SDS011;17110;52.602;12.998;2023-07-20T03:52:32;17.35;;;15.77;;
30299;SDS011;17110;52.602;12.998;2023-07-20T03:54:58;18.35;;;16.45;;
30299;SDS011;17110;52.602;12.998;2023-07-20T03:57:23;16.90;;;15.40;;
30299;SDS011;17110;52.602;12.998;2023-07-20T03:59:49;16.90;;;15.25;;
30299;SDS011;17110;52.602;12.998;2023-07-20T04:02:15;18.33;;;16.52;;
30299;SDS011;17110;52.602;12.998;2023-07-20T04:04:43;16.35;;;15.02;;
30299;SDS011;17110;52.602;12.998;2023-07-20T04:07:08;17.55;;;16.10;;
30299;SDS011;17110;52.602;12.998;2023-07-20T04:09:34;17.25;;;15.75;;
30299;SDS011;17110;52.602;12.998;2023-07-20T04:12:00;16.15;;;14.68;;
30299;SDS011;17110;52.602;12.998;2023-07-20T04:14:26;16.75;;;15.00;;
30299;SDS011;17110;52.602;12.998;2023-07-20T04:16:51;16.83;;;15.15;;
30299;SDS011;17110;52.602;12.998;2023-07-20T04:19:17;17.20;;;15.45;;
30299;SDS011;17110;52.602;12.998;2023-07-20T04:21:44;16.05;;;14.82;;
30299;SDS011;17110;52.602;12.998;2023-07-20T04:24:10;15.43;;;14.15;;
30299;SDS011;17110;52.602;12.998;2023-07-20T04:26:36;16.67;;;15.02;;
30299;SDS011;17110;52.602;12.998;2023-07-20T04:29:02;17.48;;;15.75;;
30299;SDS011;17110;52.602;12.998;2023-07-20T04:31:34;16.42;;;14.98;;
30299;SDS011;17110;52.602;12.998;2023-07-20T04:34:02;16.13;;;14.82;;
30299;SDS011;17110;52.602;12.998;2023-07-20T04:36:28;16.13;;;14.75;;
30299;SDS011;17110;52.602;12.998;2023-07-20T04:38:55;16.90;;;15.40;;
30299;SDS011;17110;52.602;12.998;2023-07-20T04:41:22;16.17;;;14.60;;
30299;SDS011;17110;52.602;12.998;2023-07-20T04:43:50;15.45;;;14.00;;
30299;SDS011;17110;52.602;12.998;2023-07-20T04:46:23;16.90;;;15.45;;
30299;SDS011;17110;52.602;12.998;2023-07-20T04:48:49;15.48;;;14.18;;
30299;SDS011;17110;52.602;12.998;2023-07-20T04:51:15;15.70;;;14.32;;
30299;SDS011;17110;52.602;12.998;2023-07-20T04:53:41;17.02;;;15.32;;
30299;SDS011;17110;52.602;12.998;2023-07-20T04:56:10;17.27;;;15.68;;
30299;SDS011;17110;52.602;12.998;2023-07-20T04:58:35;17.33;;;15.63;;
30299;SDS011;17110;52.602;12.998;2023-07-20T05:01:01;17.60;;;16.20;;
30299;SDS011;17110;52.602;12.998;2023-07-20T05:03:27;17.90;;;16.10;;
30299;SDS011;17110;52.602;12.998;2023-07-20T05:05:53;15.75;;;14.45;;
30299;SDS011;17110;52.602;12.998;2023-07-20T05:08:18;17.63;;;15.80;;
30299;SDS011;17110;52.602;12.998;2023-07-20T05:10:45;17.08;;;15.50;;
30299;SDS011;17110;52.602;12.998;2023-07-20T05:13:13;17.27;;;15.57;;
30299;SDS011;17110;52.602;12.998;2023-07-20T05:15:38;15.73;;;14.43;;
30299;SDS011;17110;52.602;12.998;2023-07-20T05:18:07;16.73;;;15.20;;
30299;SDS011;17110;52.602;12.998;2023-07-20T05:20:32;16.55;;;14.95;;
30299;SDS011;17110;52.602;12.998;2023-07-20T05:22:59;15.90;;;14.52;;
30299;SDS011;17110;52.602;12.998;2023-07-20T05:25:25;14.85;;;13.57;;
30299;SDS011;17110;52.602;12.998;2023-07-20T05:27:51;14.98;;;13.57;;
30299;SDS011;17110;52.602;12.998;2023-07-20T05:30:18;14.40;;;13.10;;
30299;SDS011;17110;52.602;12.998;2023-07-20T05:32:44;13.65;;;12.35;;
30299;SDS011;17110;52.602;12.998;2023-07-20T05:35:10;11.35;;;10.35;;
30299;SDS011;17110;52.602;12.998;2023-07-20T05:37:35;10.20;;;9.30;;
30299;SDS011;17110;52.602;12.998;2023-07-20T05:40:01;8.80;;;7.97;;
30299;SDS011;17110;52.602;12.998;2023-07-20T05:42:26;9.23;;;8.27;;
30299;SDS011;17110;52.602;12.998;2023-07-20T05:44:52;9.52;;;8.40;;
30299;SDS011;17110;52.602;12.998;2023-07-20T05:47:19;8.88;;;8.07;;
30299;SDS011;17110;52.602;12.998;2023-07-20T05:49:45;8.52;;;7.93;;
30299;SDS011;17110;52.602;12.998;2023-07-20T05:52:11;8.57;;;7.72;;
30299;SDS011;17110;52.602;12.998;2023-07-20T05:54:36;7.90;;;7.22;;
30299;SDS011;17110;52.602;12.998;2023-07-20T05:57:02;9.10;;;6.82;;
30299;SDS011;17110;52.602;12.998;2023-07-20T05:59:28;7.53;;;6.07;;
30299;SDS011;17110;52.602;12.998;2023-07-20T06:01:53;6.22;;;5.63;;
30299;SDS011;17110;52.602;12.998;2023-07-20T06:04:20;5.80;;;5.32;;
30299;SDS011;17110;52.602;12.998;2023-07-20T06:06:46;7.47;;;5.20;;
30299;SDS011;17110;52.602;12.998;2023-07-20T06:09:11;4.45;;;4.03;;
30299;SDS011;17110;52.602;12.998;2023-07-20T06:11:37;6.93;;;4.03;;
30299;SDS011;17110;52.602;12.998;2023-07-20T06:14:03;3.80;;;3.50;;
30299;SDS011;17110;52.602;12.998;2023-07-20T06:16:28;4.28;;;3.50;;
30299;SDS011;17110;52.602;12.998;2023-07-20T06:18:55;4.40;;;3.22;;
30299;SDS011;17110;52.602;12.998;2023-07-20T06:21:22;5.47;;;3.50;;
30299;SDS011;17110;52.602;12.998;2023-07-20T06:23:47;3.92;;;3.00;;
30299;SDS011;17110;52.602;12.998;2023-07-20T06:26:13;3.28;;;2.90;;
30299;SDS011;17110;52.602;12.998;2023-07-20T06:28:39;3.85;;;2.85;;
30299;SDS011;17110;52.602;12.998;2023-07-20T06:31:04;3.60;;;2.75;;
30299;SDS011;17110;52.602;12.998;2023-07-20T06:33:30;3.50;;;2.75;;
30299;SDS011;17110;52.602;12.998;2023-07-20T06:35:56;5.40;;;2.78;;
30299;SDS011;17110;52.602;12.998;2023-07-20T06:38:23;2.70;;;2.25;;
30299;SDS011;17110;52.602;12.998;2023-07-20T06:40:48;3.22;;;2.03;;
30299;SDS011;17110;52.602;12.998;2023-07-20T06:43:14;2.55;;;2.00;;
30299;SDS011;17110;52.602;12.998;2023-07-20T06:45:40;2.65;;;2.10;;
30299;SDS011;17110;52.602;12.998;2023-07-20T06:48:06;2.13;;;1.75;;
30299;SDS011;17110;52.602;12.998;2023-07-20T06:50:32;3.40;;;2.00;;
30299;SDS011;17110;52.602;12.998;2023-07-20T06:52:57;3.58;;;1.95;;
30299;SDS011;17110;52.602;12.998;2023-07-20T06:55:24;3.55;;;1.45;;
30299;SDS011;17110;52.602;12.998;2023-07-20T06:57:50;2.08;;;1.40;;
30299;SDS011;17110;52.602;12.998;2023-07-20T07:00:16;2.85;;;1.60;;
30299;SDS011;17110;52.602;12.998;2023-07-20T07:02:42;2.67;;;1.58;;
30299;SDS011;17110;52.602;12.998;2023-07-20T07:05:07;2.17;;;1.23;;
30299;SDS011;17110;52.602;12.998;2023-07-20T07:07:33;3.80;;;1.33;;
30299;SDS011;17110;52.602;12.998;2023-07-20T07:09:59;3.63;;;1.50;;
30299;SDS011;17110;52.602;12.998;2023-07-20T07:12:26;2.22;;;1.20;;
30299;SDS011;17110;52.602;12.998;2023-07-20T07:14:52;1.15;;;1.05;;
30299;SDS011;17110;52.602;12.998;2023-07-20T07:17:17;1.40;;;1.00;;
30299;SDS011;17110;52.602;12.998;2023-07-20T07:19:43;0.95;;;0.90;;
30299;SDS011;17110;52.602;12.998;2023-07-20T07:22:09;1.75;;;0.90;;
30299;SDS011;17110;52.602;12.998;2023-07-20T07:24:34;0.93;;;0.63;;
30299;SDS011;17110;52.602;12.998;2023-07-20T07:27:00;5.38;;;0.85;;
30299;SDS011;17110;52.602;12.998;2023-07-20T07:29:27;0.60;;;0.60;;
30299;SDS011;17110;52.602;12.998;2023-07-20T07:31:53;0.65;;;0.65;;
30299;SDS011;17110;52.602;12.998;2023-07-20T07:34:18;0.80;;;0.80;;
30299;SDS011;17110;52.602;12.998;2023-07-20T07:36:44;1.35;;;1.00;;
30299;SDS011;17110;52.602;12.998;2023-07-20T07:39:10;1.30;;;0.80;;
30299;SDS011;17110;52.602;12.998;2023-07-20T07:41:35;0.95;;;0.90;;
30299;SDS011;17110;52.602;12.998;2023-07-20T07:44:01;1.33;;;0.85;;
30299;SDS011;17110;52.602;12.998;2023-07-20T07:46:28;1.98;;;0.98;;
30299;SDS011;17110;52.602;12.998;2023-07-20T07:48:54;3.67;;;0.80;;
30299;SDS011;17110;52.602;12.998;2023-07-20T07:51:19;1.17;;;0.90;;
30299;SDS011;17110;52.602;12.998;2023-07-20T07:53:45;0.90;;;0.73;;
30299;SDS011;17110;52.602;12.998;2023-07-20T07:56:11;1.08;;;0.73;;
30299;SDS011;17110;52.602;12.998;2023-07-20T07:58:37;0.80;;;0.80;;
30299;SDS011;17110;52.602;12.998;2023-07-20T08:01:03;4.15;;;0.80;;
30299;SDS011;17110;52.602;12.998;2023-07-20T08:03:31;3.42;;;0.80;;
30299;SDS011;17110;52.602;12.998;2023-07-20T08:05:56;1.08;;;0.93;;
30299;SDS011;17110;52.602;12.998;2023-07-20T08:08:22;1.38;;;0.88;;
30299;SDS011;17110;52.602;12.998;2023-07-20T08:10:48;3.80;;;0.90;;
30299;SDS011;17110;52.602;12.998;2023-07-20T08:13:13;1.95;;;0.93;;
30299;SDS011;17110;52.602;12.998;2023-07-20T08:15:39;1.85;;;0.63;;
30299;SDS011;17110;52.602;12.998;2023-07-20T08:18:05;2.60;;;0.60;;
30299;SDS011;17110;52.602;12.998;2023-07-20T08:20:32;1.48;;;0.63;;
30299;SDS011;17110;52.602;12.998;2023-07-20T08:22:58;2.22;;;0.80;;
30299;SDS011;17110;52.602;12.998;2023-07-20T08:25:23;1.00;;;0.90;;
30299;SDS011;17110;52.602;12.998;2023-07-20T08:27:49;2.60;;;0.98;;
30299;SDS011;17110;52.602;12.998;2023-07-20T08:30:14;1.30;;;1.20;;
30299;SDS011;17110;52.602;12.998;2023-07-20T08:32:40;3.28;;;0.95;;
30299;SDS011;17110;52.602;12.998;2023-07-20T08:35:06;3.05;;;1.10;;
30299;SDS011;17110;52.602;12.998;2023-07-20T08:37:33;1.30;;;0.75;;
30299;SDS011;17110;52.602;12.998;2023-07-20T08:40:00;0.93;;;0.65;;
30299;SDS011;17110;52.602;12.998;2023-07-20T08:42:35;1.02;;;0.80;;
30299;SDS011;17110;52.602;12.998;2023-07-20T08:45:02;1.33;;;0.70;;
30299;SDS011;17110;52.602;12.998;2023-07-20T08:47:31;1.20;;;0.77;;
30299;SDS011;17110;52.602;12.998;2023-07-20T08:49:57;1.25;;;1.00;;
30299;SDS011;17110;52.602;12.998;2023-07-20T08:52:24;1.58;;;0.77;;
30299;SDS011;17110;52.602;12.998;2023-07-20T08:54:51;2.97;;;0.75;;
30299;SDS011;17110;52.602;12.998;2023-07-20T08:57:17;2.20;;;1.10;;
30299;SDS011;17110;52.602;12.998;2023-07-20T08:59:45;2.55;;;0.85;;
30299;SDS011;17110;52.602;12.998;2023-07-20T09:02:11;1.80;;;1.00;;
30299;SDS011;17110;52.602;12.998;2023-07-20T09:04:41;1.17;;;0.95;;
30299;SDS011;17110;52.602;12.998;2023-07-20T09:07:07;1.02;;;0.80;;
30299;SDS011;17110;52.602;12.998;2023-07-20T09:09:39;3.67;;;1.02;;
30299;SDS011;17110;52.602;12.998;2023-07-20T09:12:06;1.42;;;1.00;;
30299;SDS011;17110;52.602;12.998;2023-07-20T09:14:38;1.67;;;1.23;;
30299;SDS011;17110;52.602;12.998;2023-07-20T09:17:04;2.40;;;1.15;;
30299;SDS011;17110;52.602;12.998;2023-07-20T09:19:30;3.03;;;1.10;;
30299;SDS011;17110;52.602;12.998;2023-07-20T09:21:55;1.25;;;0.90;;
30299;SDS011;17110;52.602;12.998;2023-07-20T09:24:21;2.65;;;1.00;;
30299;SDS011;17110;52.602;12.998;2023-07-20T09:26:48;1.27;;;0.90;;
30299;SDS011;17110;52.602;12.998;2023-07-20T09:29:16;1.10;;;1.00;;
30299;SDS011;17110;52.602;12.998;2023-07-20T09:31:43;1.17;;;0.85;;
30299;SDS011;17110;52.602;12.998;2023-07-20T09:34:24;1.90;;;0.82;;
30299;SDS011;17110;52.602;12.998;2023-07-20T09:36:49;3.00;;;1.23;;
30299;SDS011;17110;52.602;12.998;2023-07-20T09:39:16;2.25;;;1.00;;
30299;SDS011;17110;52.602;12.998;2023-07-20T09:41:42;1.88;;;1.17;;
30299;SDS011;17110;52.602;12.998;2023-07-20T09:44:10;1.38;;;0.80;;
30299;SDS011;17110;52.602;12.998;2023-07-20T09:46:44;1.33;;;0.73;;
30299;SDS011;17110;52.602;12.998;2023-07-20T09:49:11;3.00;;;1.02;;
30299;SDS011;17110;52.602;12.998;2023-07-20T09:51:36;2.55;;;0.95;;
30299;SDS011;17110;52.602;12.998;2023-07-20T09:54:02;2.80;;;0.98;;
30299;SDS011;17110;52.602;12.998;2023-07-20T09:56:29;3.83;;;1.08;;
30299;SDS011;17110;52.602;12.998;2023-07-20T09:58:55;0.70;;;0.60;;
30299;SDS011;17110;52.602;12.998;2023-07-20T10:01:21;1.30;;;0.82;;
30299;SDS011;17110;52.602;12.998;2023-07-20T10:03:49;2.22;;;1.10;;
30299;SDS011;17110;52.602;12.998;2023-07-20T10:06:19;1.15;;;0.60;;
30299;SDS011;17110;52.602;12.998;2023-07-20T10:11:15;1.58;;;0.70;;
30299;SDS011;17110;52.602;12.998;2023-07-20T10:13:43;0.70;;;0.70;;
30299;SDS011;17110;52.602;12.998;2023-07-20T10:16:11;1.80;;;0.90;;
30299;SDS011;17110;52.602;12.998;2023-07-20T10:18:41;2.95;;;1.00;;
30299;SDS011;17110;52.602;12.998;2023-07-20T10:21:13;0.88;;;0.82;;
30299;SDS011;17110;52.602;12.998;2023-07-20T10:23:42;1.75;;;0.80;;
30299;SDS011;17110;52.602;12.998;2023-07-20T10:26:07;2.70;;;1.00;;
30299;SDS011;17110;52.602;12.998;2023-07-20T10:28:34;1.10;;;0.80;;
30299;SDS011;17110;52.602;12.998;2023-07-20T10:31:03;3.90;;;0.82;;
30299;SDS011;17110;52.602;12.998;2023-07-20T10:33:29;2.70;;;0.80;;
30299;SDS011;17110;52.602;12.998;2023-07-20T10:35:55;0.93;;;0.57;;
30299;SDS011;17110;52.602;12.998;2023-07-20T10:38:39;0.77;;;0.50;;
30299;SDS011;17110;52.602;12.998;2023-07-20T10:41:15;1.67;;;0.85;;
30299;SDS011;17110;52.602;12.998;2023-07-20T10:43:42;1.33;;;0.70;;
30299;SDS011;17110;52.602;12.998;2023-07-20T10:46:08;2.83;;;0.82;;
30299;SDS011;17110;52.602;12.998;2023-07-20T10:48:36;1.90;;;0.70;;
30299;SDS011;17110;52.602;12.998;2023-07-20T10:51:27;1.47;;;0.80;;
30299;SDS011;17110;52.602;12.998;2023-07-20T10:53:56;2.22;;;0.60;;
30299;SDS011;17110;52.602;12.998;2023-07-20T10:56:22;1.55;;;0.70;;
30299;SDS011;17110;52.602;12.998;2023-07-20T10:58:57;1.80;;;0.90;;
30299;SDS011;17110;52.602;12.998;2023-07-20T11:01:30;4.47;;;0.75;;
30299;SDS011;17110;52.602;12.998;2023-07-20T11:03:57;0.70;;;0.70;;
30299;SDS011;17110;52.602;12.998;2023-07-20T11:06:30;1.92;;;0.90;;
30299;SDS011;17110;52.602;12.998;2023-07-20T11:09:03;4.85;;;0.90;;
30299;SDS011;17110;52.602;12.998;2023-07-20T11:11:30;2.38;;;0.90;;
30299;SDS011;17110;52.602;12.998;2023-07-20T11:13:58;1.60;;;0.98;;
30299;SDS011;17110;52.602;12.998;2023-07-20T11:19:15;2.72;;;0.60;;
30299;SDS011;17110;52.602;12.998;2023-07-20T11:21:43;3.53;;;0.77;;
30299;SDS011;17110;52.602;12.998;2023-07-20T11:24:11;0.85;;;0.80;;
30299;SDS011;17110;52.602;12.998;2023-07-20T11:26:40;2.45;;;0.80;;
30299;SDS011;17110;52.602;12.998;2023-07-20T11:29:10;3.28;;;0.80;;
30299;SDS011;17110;52.602;12.998;2023-07-20T11:31:36;1.63;;;0.75;;
30299;SDS011;17110;52.602;12.998;2023-07-20T11:34:02;0.85;;;0.77;;
30299;SDS011;17110;52.602;12.998;2023-07-20T11:36:28;1.00;;;0.90;;
30299;SDS011;17110;52.602;12.998;2023-07-20T11:38:54;1.23;;;0.68;;
30299;SDS011;17110;52.602;12.998;2023-07-20T11:41:21;3.60;;;0.70;;
30299;SDS011;17110;52.602;12.998;2023-07-20T11:43:47;2.60;;;1.10;;
30299;SDS011;17110;52.602;12.998;2023-07-20T11:46:15;2.28;;;1.00;;
30299;SDS011;17110;52.602;12.998;2023-07-20T11:49:12;1.58;;;0.85;;
30299;SDS011;17110;52.602;12.998;2023-07-20T11:51:39;3.20;;;0.95;;
30299;SDS011;17110;52.602;12.998;2023-07-20T11:54:06;1.00;;;0.90;;
30299;SDS011;17110;52.602;12.998;2023-07-20T11:56:37;2.45;;;0.95;;
30299;SDS011;17110;52.602;12.998;2023-07-20T11:59:28;0.90;;;0.70;;
30299;SDS011;17110;52.602;12.998;2023-07-20T12:02:05;0.50;;;0.50;;
30299;SDS011;17110;52.602;12.998;2023-07-20T12:04:31;0.50;;;0.50;;
30299;SDS011;17110;52.602;12.998;2023-07-20T12:07:12;1.05;;;0.63;;
30299;SDS011;17110;52.602;12.998;2023-07-20T12:09:38;3.10;;;0.60;;
30299;SDS011;17110;52.602;12.998;2023-07-20T12:12:10;1.13;;;0.75;;
30299;SDS011;17110;52.602;12.998;2023-07-20T12:14:36;3.63;;;0.55;;
30299;SDS011;17110;52.602;12.998;2023-07-20T12:17:01;1.73;;;0.70;;
30299;SDS011;17110;52.602;12.998;2023-07-20T12:19:27;2.85;;;0.90;;
30299;SDS011;17110;52.602;12.998;2023-07-20T12:21:57;0.65;;;0.65;;
30299;SDS011;17110;52.602;12.998;2023-07-20T12:24:23;1.27;;;0.77;;
30299;SDS011;17110;52.602;12.998;2023-07-20T12:26:55;0.70;;;0.50;;
30299;SDS011;17110;52.602;12.998;2023-07-20T12:29:23;1.83;;;0.73;;
30299;SDS011;17110;52.602;12.998;2023-07-20T12:31:48;0.60;;;0.60;;
30299;SDS011;17110;52.602;12.998;2023-07-20T12:34:23;0.50;;;0.50;;
30299;SDS011;17110;52.602;12.998;2023-07-20T12:36:50;1.65;;;0.85;;
30299;SDS011;17110;52.602;12.998;2023-07-20T12:39:16;1.92;;;0.63;;
30299;SDS011;17110;52.602;12.998;2023-07-20T12:41:42;0.73;;;0.55;;
30299;SDS011;17110;52.602;12.998;2023-07-20T12:44:12;1.45;;;0.63;;
30299;SDS011;17110;52.602;12.998;2023-07-20T12:46:41;1.23;;;0.70;;
30299;SDS011;17110;52.602;12.998;2023-07-20T12:49:19;0.70;;;0.50;;
30299;SDS011;17110;52.602;12.998;2023-07-20T12:51:49;0.50;;;0.50;;
30299;SDS011;17110;52.602;12.998;2023-07-20T12:54:15;1.58;;;0.70;;
30299;SDS011;17110;52.602;12.998;2023-07-20T12:56:43;0.40;;;0.40;;
30299;SDS011;17110;52.602;12.998;2023-07-20T12:59:11;1.30;;;0.60;;
30299;SDS011;17110;52.602;12.998;2023-07-20T13:01:38;1.88;;;0.80;;
30299;SDS011;17110;52.602;12.998;2023-07-20T13:04:05;0.75;;;0.60;;
30299;SDS011;17110;52.602;12.998;2023-07-20T13:06:41;1.48;;;0.50;;
30299;SDS011;17110;52.602;12.998;2023-07-20T13:12:05;0.98;;;0.70;;
30299;SDS011;17110;52.602;12.998;2023-07-20T13:14:31;1.15;;;0.70;;
30299;SDS011;17110;52.602;12.998;2023-07-20T13:16:57;1.67;;;0.50;;
30299;SDS011;17110;52.602;12.998;2023-07-20T13:19:24;1.23;;;0.50;;
30299;SDS011;17110;52.602;12.998;2023-07-20T13:21:50;0.75;;;0.55;;
30299;SDS011;17110;52.602;12.998;2023-07-20T13:24:16;1.15;;;0.73;;
30299;SDS011;17110;52.602;12.998;2023-07-20T13:26:55;0.60;;;0.60;;
30299;SDS011;17110;52.602;12.998;2023-07-20T13:29:20;2.00;;;0.85;;
30299;SDS011;17110;52.602;12.998;2023-07-20T13:31:49;3.63;;;1.00;;
30299;SDS011;17110;52.602;12.998;2023-07-20T13:34:15;1.95;;;0.68;;
30299;SDS011;17110;52.602;12.998;2023-07-20T13:36:47;1.17;;;0.52;;
30299;SDS011;17110;52.602;12.998;2023-07-20T13:39:13;2.53;;;0.70;;
30299;SDS011;17110;52.602;12.998;2023-07-20T13:41:39;1.60;;;0.80;;
30299;SDS011;17110;52.602;12.998;2023-07-20T13:44:04;2.33;;;0.88;;
30299;SDS011;17110;52.602;12.998;2023-07-20T13:46:30;0.70;;;0.70;;
30299;SDS011;17110;52.602;12.998;2023-07-20T13:48:56;2.63;;;1.10;;
30299;SDS011;17110;52.602;12.998;2023-07-20T13:51:21;2.40;;;1.00;;
30299;SDS011;17110;52.602;12.998;2023-07-20T13:53:48;0.93;;;0.80;;
30299;SDS011;17110;52.602;12.998;2023-07-20T13:56:14;1.45;;;0.70;;
30299;SDS011;17110;52.602;12.998;2023-07-20T13:58:40;1.17;;;0.75;;
30299;SDS011;17110;52.602;12.998;2023-07-20T14:01:07;1.52;;;0.98;;
30299;SDS011;17110;52.602;12.998;2023-07-20T14:03:32;0.80;;;0.73;;
30299;SDS011;17110;52.602;12.998;2023-07-20T14:05:58;1.52;;;0.82;;
30299;SDS011;17110;52.602;12.998;2023-07-20T14:08:24;1.52;;;1.00;;
30299;SDS011;17110;52.602;12.998;2023-07-20T14:10:51;1.00;;;0.60;;
30299;SDS011;17110;52.602;12.998;2023-07-20T14:13:17;4.20;;;0.77;;
30299;SDS011;17110;52.602;12.998;2023-07-20T14:15:44;2.13;;;0.77;;
30299;SDS011;17110;52.602;12.998;2023-07-20T14:18:10;2.13;;;0.60;;
30299;SDS011;17110;52.602;12.998;2023-07-20T14:20:35;0.93;;;0.65;;
30299;SDS011;17110;52.602;12.998;2023-07-20T14:23:02;1.77;;;0.80;;
30299;SDS011;17110;52.602;12.998;2023-07-20T14:25:27;5.25;;;1.08;;
30299;SDS011;17110;52.602;12.998;2023-07-20T14:28:15;1.20;;;0.90;;
30299;SDS011;17110;52.602;12.998;2023-07-20T14:31:01;1.15;;;0.70;;
30299;SDS011;17110;52.602;12.998;2023-07-20T14:36:20;2.10;;;0.98;;
30299;SDS011;17110;52.602;12.998;2023-07-20T14:39:34;2.13;;;0.85;;
30299;SDS011;17110;52.602;12.998;2023-07-20T14:42:10;3.30;;;1.08;;
30299;SDS011;17110;52.602;12.998;2023-07-20T14:47:49;1.13;;;0.63;;